sensor_id;sensor_type;location;lat;lon;timestamp;P1;durP1;ratioP1;P2;durP2;ratioP2
64395;SDS011;50717;53.360;6.290;2023-04-25T00:00:04;23.58;;;4.13;;
64395;SDS011;50717;53.360;6.290;2023-04-25T00:02:32;20.90;;;4.43;;
64395;SDS011;50717;53.360;6.290;2023-04-25T00:05:00;14.10;;;2.97;;
64395;SDS011;50717;53.360;6.290;2023-04-25T00:07:26;24.77;;;3.83;;
64395;SDS011;50717;53.360;6.290;2023-04-25T00:09:52;14.95;;;3.30;;
64395;SDS011;50717;53.360;6.290;2023-04-25T00:12:18;18.27;;;2.97;;
64395;SDS011;50717;53.360;6.290;2023-04-25T00:14:44;21.33;;;4.55;;
64395;SDS011;50717;53.360;6.290;2023-04-25T00:17:11;19.38;;;3.17;;
64395;SDS011;50717;53.360;6.290;2023-04-25T00:19:37;20.50;;;3.88;;
64395;SDS011;50717;53.360;6.290;2023-04-25T00:22:02;12.20;;;2.75;;
64395;SDS011;50717;53.360;6.290;2023-04-25T00:24:28;15.80;;;3.83;;
64395;SDS011;50717;53.360;6.290;2023-04-25T00:26:54;17.48;;;3.03;;
64395;SDS011;50717;53.360;6.290;2023-04-25T00:29:20;11.43;;;3.13;;
64395;SDS011;50717;53.360;6.290;2023-04-25T00:31:46;19.15;;;3.05;;
64395;SDS011;50717;53.360;6.290;2023-04-25T00:34:11;16.17;;;3.28;;
64395;SDS011;50717;53.360;6.290;2023-04-25T00:36:37;18.10;;;3.05;;
64395;SDS011;50717;53.360;6.290;2023-04-25T00:39:03;12.13;;;3.10;;
64395;SDS011;50717;53.360;6.290;2023-04-25T00:41:29;17.58;;;3.47;;
64395;SDS011;50717;53.360;6.290;2023-04-25T00:43:55;16.50;;;3.05;;
64395;SDS011;50717;53.360;6.290;2023-04-25T00:46:22;13.43;;;3.17;;
64395;SDS011;50717;53.360;6.290;2023-04-25T00:48:48;22.48;;;3.13;;
64395;SDS011;50717;53.360;6.290;2023-04-25T00:51:16;15.38;;;3.05;;
64395;SDS011;50717;53.360;6.290;2023-04-25T00:53:45;14.10;;;3.08;;
64395;SDS011;50717;53.360;6.290;2023-04-25T00:56:12;16.42;;;3.15;;
64395;SDS011;50717;53.360;6.290;2023-04-25T00:58:38;19.40;;;3.60;;
64395;SDS011;50717;53.360;6.290;2023-04-25T01:01:06;16.20;;;2.92;;
64395;SDS011;50717;53.360;6.290;2023-04-25T01:03:33;12.35;;;2.95;;
64395;SDS011;50717;53.360;6.290;2023-04-25T01:06:06;25.13;;;4.00;;
64395;SDS011;50717;53.360;6.290;2023-04-25T01:08:34;19.95;;;3.55;;
64395;SDS011;50717;53.360;6.290;2023-04-25T01:11:00;19.98;;;3.60;;
64395;SDS011;50717;53.360;6.290;2023-04-25T01:13:26;25.90;;;3.05;;
64395;SDS011;50717;53.360;6.290;2023-04-25T01:15:52;22.90;;;3.75;;
64395;SDS011;50717;53.360;6.290;2023-04-25T01:18:18;17.50;;;3.53;;
64395;SDS011;50717;53.360;6.290;2023-04-25T01:20:45;21.08;;;3.13;;
64395;SDS011;50717;53.360;6.290;2023-04-25T01:23:12;17.80;;;3.53;;
64395;SDS011;50717;53.360;6.290;2023-04-25T01:25:39;25.63;;;3.40;;
64395;SDS011;50717;53.360;6.290;2023-04-25T01:30:31;22.92;;;3.20;;
64395;SDS011;50717;53.360;6.290;2023-04-25T01:32:57;16.80;;;2.70;;
64395;SDS011;50717;53.360;6.290;2023-04-25T01:35:24;20.63;;;3.00;;
64395;SDS011;50717;53.360;6.290;2023-04-25T01:37:50;21.10;;;3.13;;
64395;SDS011;50717;53.360;6.290;2023-04-25T01:40:16;23.02;;;3.53;;
64395;SDS011;50717;53.360;6.290;2023-04-25T01:42:44;16.98;;;2.90;;
64395;SDS011;50717;53.360;6.290;2023-04-25T01:45:11;16.15;;;2.63;;
64395;SDS011;50717;53.360;6.290;2023-04-25T01:47:37;16.05;;;3.10;;
64395;SDS011;50717;53.360;6.290;2023-04-25T01:50:05;26.20;;;4.47;;
64395;SDS011;50717;53.360;6.290;2023-04-25T01:52:32;17.65;;;3.28;;
64395;SDS011;50717;53.360;6.290;2023-04-25T01:54:59;31.42;;;3.90;;
64395;SDS011;50717;53.360;6.290;2023-04-25T01:57:26;18.52;;;3.00;;
64395;SDS011;50717;53.360;6.290;2023-04-25T01:59:54;17.85;;;3.22;;
64395;SDS011;50717;53.360;6.290;2023-04-25T02:02:24;21.30;;;3.15;;
64395;SDS011;50717;53.360;6.290;2023-04-25T02:04:51;18.05;;;3.05;;
64395;SDS011;50717;53.360;6.290;2023-04-25T02:07:17;18.52;;;3.42;;
64395;SDS011;50717;53.360;6.290;2023-04-25T02:09:42;15.68;;;2.55;;
64395;SDS011;50717;53.360;6.290;2023-04-25T02:12:10;15.85;;;3.13;;
64395;SDS011;50717;53.360;6.290;2023-04-25T02:14:36;15.85;;;3.13;;
64395;SDS011;50717;53.360;6.290;2023-04-25T02:17:02;19.83;;;3.67;;
64395;SDS011;50717;53.360;6.290;2023-04-25T02:19:27;14.95;;;2.80;;
64395;SDS011;50717;53.360;6.290;2023-04-25T02:21:53;15.70;;;2.95;;
64395;SDS011;50717;53.360;6.290;2023-04-25T02:24:19;15.57;;;2.65;;
64395;SDS011;50717;53.360;6.290;2023-04-25T02:26:45;18.25;;;2.78;;
64395;SDS011;50717;53.360;6.290;2023-04-25T02:29:11;14.93;;;3.55;;
64395;SDS011;50717;53.360;6.290;2023-04-25T02:31:37;16.25;;;2.30;;
64395;SDS011;50717;53.360;6.290;2023-04-25T02:34:03;14.95;;;3.20;;
64395;SDS011;50717;53.360;6.290;2023-04-25T02:36:29;17.55;;;3.45;;
64395;SDS011;50717;53.360;6.290;2023-04-25T02:38:59;16.27;;;2.38;;
64395;SDS011;50717;53.360;6.290;2023-04-25T02:41:25;12.80;;;2.28;;
64395;SDS011;50717;53.360;6.290;2023-04-25T02:43:51;18.40;;;2.70;;
64395;SDS011;50717;53.360;6.290;2023-04-25T02:46:17;13.98;;;3.20;;
64395;SDS011;50717;53.360;6.290;2023-04-25T02:48:43;18.55;;;3.03;;
64395;SDS011;50717;53.360;6.290;2023-04-25T02:51:08;16.85;;;2.88;;
64395;SDS011;50717;53.360;6.290;2023-04-25T02:53:34;15.38;;;3.00;;
64395;SDS011;50717;53.360;6.290;2023-04-25T02:56:00;16.17;;;3.00;;
64395;SDS011;50717;53.360;6.290;2023-04-25T02:58:26;15.65;;;3.22;;
64395;SDS011;50717;53.360;6.290;2023-04-25T03:00:52;19.95;;;3.22;;
64395;SDS011;50717;53.360;6.290;2023-04-25T03:03:18;13.13;;;3.25;;
64395;SDS011;50717;53.360;6.290;2023-04-25T03:05:46;11.77;;;2.53;;
64395;SDS011;50717;53.360;6.290;2023-04-25T03:08:16;14.55;;;2.60;;
64395;SDS011;50717;53.360;6.290;2023-04-25T03:13:08;14.90;;;2.92;;
64395;SDS011;50717;53.360;6.290;2023-04-25T03:15:34;16.42;;;3.03;;
64395;SDS011;50717;53.360;6.290;2023-04-25T03:18:00;12.32;;;2.63;;
64395;SDS011;50717;53.360;6.290;2023-04-25T03:20:26;18.95;;;3.03;;
64395;SDS011;50717;53.360;6.290;2023-04-25T03:22:51;20.05;;;2.50;;
64395;SDS011;50717;53.360;6.290;2023-04-25T03:25:17;14.57;;;3.17;;
64395;SDS011;50717;53.360;6.290;2023-04-25T03:27:43;12.52;;;2.40;;
64395;SDS011;50717;53.360;6.290;2023-04-25T03:30:09;15.73;;;2.88;;
64395;SDS011;50717;53.360;6.290;2023-04-25T03:32:35;19.48;;;2.88;;
64395;SDS011;50717;53.360;6.290;2023-04-25T03:35:00;14.30;;;3.95;;
64395;SDS011;50717;53.360;6.290;2023-04-25T03:37:26;19.52;;;3.92;;
64395;SDS011;50717;53.360;6.290;2023-04-25T03:39:52;15.70;;;2.60;;
64395;SDS011;50717;53.360;6.290;2023-04-25T03:42:17;16.90;;;3.10;;
64395;SDS011;50717;53.360;6.290;2023-04-25T03:44:43;16.25;;;2.70;;
64395;SDS011;50717;53.360;6.290;2023-04-25T03:47:09;19.35;;;2.65;;
64395;SDS011;50717;53.360;6.290;2023-04-25T03:49:35;14.77;;;2.85;;
64395;SDS011;50717;53.360;6.290;2023-04-25T03:52:01;17.00;;;2.65;;
64395;SDS011;50717;53.360;6.290;2023-04-25T03:56:53;20.23;;;3.65;;
64395;SDS011;50717;53.360;6.290;2023-04-25T03:59:18;16.25;;;2.80;;
64395;SDS011;50717;53.360;6.290;2023-04-25T04:01:44;15.93;;;2.88;;
64395;SDS011;50717;53.360;6.290;2023-04-25T04:04:10;15.18;;;3.20;;
64395;SDS011;50717;53.360;6.290;2023-04-25T04:06:35;22.15;;;2.80;;
64395;SDS011;50717;53.360;6.290;2023-04-25T04:09:01;14.00;;;2.58;;
64395;SDS011;50717;53.360;6.290;2023-04-25T04:11:28;22.30;;;3.83;;
64395;SDS011;50717;53.360;6.290;2023-04-25T04:13:53;15.27;;;2.47;;
64395;SDS011;50717;53.360;6.290;2023-04-25T04:16:19;13.30;;;2.20;;
64395;SDS011;50717;53.360;6.290;2023-04-25T04:18:45;19.70;;;2.92;;
64395;SDS011;50717;53.360;6.290;2023-04-25T04:21:11;11.63;;;2.30;;
64395;SDS011;50717;53.360;6.290;2023-04-25T04:23:36;9.77;;;2.10;;
64395;SDS011;50717;53.360;6.290;2023-04-25T04:26:02;16.40;;;2.65;;
64395;SDS011;50717;53.360;6.290;2023-04-25T04:28:28;12.60;;;2.45;;
64395;SDS011;50717;53.360;6.290;2023-04-25T04:33:20;19.63;;;3.15;;
64395;SDS011;50717;53.360;6.290;2023-04-25T04:35:46;19.27;;;3.55;;
64395;SDS011;50717;53.360;6.290;2023-04-25T04:38:15;10.45;;;2.35;;
64395;SDS011;50717;53.360;6.290;2023-04-25T04:40:41;11.85;;;2.78;;
64395;SDS011;50717;53.360;6.290;2023-04-25T04:43:08;16.83;;;3.15;;
64395;SDS011;50717;53.360;6.290;2023-04-25T04:45:36;14.60;;;2.42;;
64395;SDS011;50717;53.360;6.290;2023-04-25T04:48:04;8.52;;;2.03;;
64395;SDS011;50717;53.360;6.290;2023-04-25T04:50:31;14.55;;;2.30;;
64395;SDS011;50717;53.360;6.290;2023-04-25T04:52:57;11.68;;;2.65;;
64395;SDS011;50717;53.360;6.290;2023-04-25T04:55:23;12.45;;;2.20;;
64395;SDS011;50717;53.360;6.290;2023-04-25T04:57:49;12.57;;;2.47;;
64395;SDS011;50717;53.360;6.290;2023-04-25T05:00:15;18.30;;;2.47;;
64395;SDS011;50717;53.360;6.290;2023-04-25T05:02:41;13.90;;;2.20;;
64395;SDS011;50717;53.360;6.290;2023-04-25T05:05:06;14.82;;;3.13;;
64395;SDS011;50717;53.360;6.290;2023-04-25T05:07:33;11.10;;;2.30;;
64395;SDS011;50717;53.360;6.290;2023-04-25T05:09:59;16.05;;;3.05;;
64395;SDS011;50717;53.360;6.290;2023-04-25T05:12:24;21.63;;;2.50;;
64395;SDS011;50717;53.360;6.290;2023-04-25T05:14:50;11.75;;;2.35;;
64395;SDS011;50717;53.360;6.290;2023-04-25T05:17:16;13.88;;;2.28;;
64395;SDS011;50717;53.360;6.290;2023-04-25T05:19:41;17.95;;;2.53;;
64395;SDS011;50717;53.360;6.290;2023-04-25T05:22:07;8.38;;;2.00;;
64395;SDS011;50717;53.360;6.290;2023-04-25T05:24:33;10.95;;;2.15;;
64395;SDS011;50717;53.360;6.290;2023-04-25T05:26:58;13.95;;;2.25;;
64395;SDS011;50717;53.360;6.290;2023-04-25T05:29:24;11.55;;;2.50;;
64395;SDS011;50717;53.360;6.290;2023-04-25T05:31:50;16.73;;;2.33;;
64395;SDS011;50717;53.360;6.290;2023-04-25T05:34:15;14.40;;;2.55;;
64395;SDS011;50717;53.360;6.290;2023-04-25T05:36:41;11.77;;;2.35;;
64395;SDS011;50717;53.360;6.290;2023-04-25T05:39:07;17.88;;;2.45;;
64395;SDS011;50717;53.360;6.290;2023-04-25T05:43:59;12.38;;;2.17;;
64395;SDS011;50717;53.360;6.290;2023-04-25T05:46:25;13.55;;;2.65;;
64395;SDS011;50717;53.360;6.290;2023-04-25T05:48:50;16.52;;;2.40;;
64395;SDS011;50717;53.360;6.290;2023-04-25T05:51:16;11.00;;;2.30;;
64395;SDS011;50717;53.360;6.290;2023-04-25T05:53:43;15.43;;;2.20;;
64395;SDS011;50717;53.360;6.290;2023-04-25T05:56:09;14.27;;;2.42;;
64395;SDS011;50717;53.360;6.290;2023-04-25T05:58:35;14.77;;;2.42;;
64395;SDS011;50717;53.360;6.290;2023-04-25T06:01:01;16.10;;;2.35;;
64395;SDS011;50717;53.360;6.290;2023-04-25T06:03:27;9.95;;;2.08;;
64395;SDS011;50717;53.360;6.290;2023-04-25T06:05:53;13.07;;;2.20;;
64395;SDS011;50717;53.360;6.290;2023-04-25T06:08:19;13.30;;;2.10;;
64395;SDS011;50717;53.360;6.290;2023-04-25T06:10:44;8.30;;;2.08;;
64395;SDS011;50717;53.360;6.290;2023-04-25T06:13:10;7.95;;;2.00;;
64395;SDS011;50717;53.360;6.290;2023-04-25T06:15:36;18.88;;;2.90;;
64395;SDS011;50717;53.360;6.290;2023-04-25T06:18:01;15.07;;;2.88;;
64395;SDS011;50717;53.360;6.290;2023-04-25T06:20:27;15.90;;;2.35;;
64395;SDS011;50717;53.360;6.290;2023-04-25T06:22:53;12.15;;;2.53;;
64395;SDS011;50717;53.360;6.290;2023-04-25T06:25:19;14.45;;;2.40;;
64395;SDS011;50717;53.360;6.290;2023-04-25T06:27:45;10.00;;;2.28;;
64395;SDS011;50717;53.360;6.290;2023-04-25T06:30:11;5.88;;;1.80;;
64395;SDS011;50717;53.360;6.290;2023-04-25T06:32:37;10.38;;;1.83;;
64395;SDS011;50717;53.360;6.290;2023-04-25T06:35:03;12.07;;;2.30;;
64395;SDS011;50717;53.360;6.290;2023-04-25T06:37:30;8.20;;;1.83;;
64395;SDS011;50717;53.360;6.290;2023-04-25T06:39:56;8.63;;;2.00;;
64395;SDS011;50717;53.360;6.290;2023-04-25T06:42:21;9.40;;;1.83;;
64395;SDS011;50717;53.360;6.290;2023-04-25T06:44:47;13.70;;;1.83;;
64395;SDS011;50717;53.360;6.290;2023-04-25T06:47:13;6.75;;;2.08;;
64395;SDS011;50717;53.360;6.290;2023-04-25T06:49:39;8.52;;;2.15;;
64395;SDS011;50717;53.360;6.290;2023-04-25T06:52:05;8.27;;;2.42;;
64395;SDS011;50717;53.360;6.290;2023-04-25T06:54:31;9.38;;;1.95;;
64395;SDS011;50717;53.360;6.290;2023-04-25T06:56:56;9.18;;;2.10;;
64395;SDS011;50717;53.360;6.290;2023-04-25T06:59:22;12.60;;;1.85;;
64395;SDS011;50717;53.360;6.290;2023-04-25T07:01:48;9.75;;;1.60;;
64395;SDS011;50717;53.360;6.290;2023-04-25T07:04:14;10.20;;;2.10;;
64395;SDS011;50717;53.360;6.290;2023-04-25T07:06:39;8.23;;;2.03;;
64395;SDS011;50717;53.360;6.290;2023-04-25T07:09:08;13.55;;;1.77;;
64395;SDS011;50717;53.360;6.290;2023-04-25T07:11:35;10.32;;;2.13;;
64395;SDS011;50717;53.360;6.290;2023-04-25T07:14:01;7.60;;;1.67;;
64395;SDS011;50717;53.360;6.290;2023-04-25T07:16:27;5.40;;;1.60;;
64395;SDS011;50717;53.360;6.290;2023-04-25T07:18:53;8.55;;;1.75;;
64395;SDS011;50717;53.360;6.290;2023-04-25T07:21:19;4.68;;;1.60;;
64395;SDS011;50717;53.360;6.290;2023-04-25T07:23:44;6.80;;;1.10;;
64395;SDS011;50717;53.360;6.290;2023-04-25T07:26:10;5.45;;;1.10;;
64395;SDS011;50717;53.360;6.290;2023-04-25T07:31:02;4.32;;;1.17;;
64395;SDS011;50717;53.360;6.290;2023-04-25T07:33:28;6.88;;;1.52;;
64395;SDS011;50717;53.360;6.290;2023-04-25T07:35:54;7.40;;;1.73;;
64395;SDS011;50717;53.360;6.290;2023-04-25T07:38:20;3.28;;;1.10;;
64395;SDS011;50717;53.360;6.290;2023-04-25T07:40:47;9.70;;;1.88;;
64395;SDS011;50717;53.360;6.290;2023-04-25T07:43:13;6.13;;;1.40;;
64395;SDS011;50717;53.360;6.290;2023-04-25T07:45:42;6.53;;;1.58;;
64395;SDS011;50717;53.360;6.290;2023-04-25T07:48:08;8.65;;;2.00;;
64395;SDS011;50717;53.360;6.290;2023-04-25T07:50:35;6.03;;;1.38;;
64395;SDS011;50717;53.360;6.290;2023-04-25T07:53:01;8.68;;;1.50;;
64395;SDS011;50717;53.360;6.290;2023-04-25T07:55:27;5.28;;;1.40;;
64395;SDS011;50717;53.360;6.290;2023-04-25T07:57:53;4.85;;;1.38;;
64395;SDS011;50717;53.360;6.290;2023-04-25T08:00:19;5.75;;;1.45;;
64395;SDS011;50717;53.360;6.290;2023-04-25T08:02:44;3.33;;;1.50;;
64395;SDS011;50717;53.360;6.290;2023-04-25T08:05:10;5.57;;;1.30;;
64395;SDS011;50717;53.360;6.290;2023-04-25T08:07:39;7.15;;;1.73;;
64395;SDS011;50717;53.360;6.290;2023-04-25T08:10:06;3.95;;;2.03;;
64395;SDS011;50717;53.360;6.290;2023-04-25T08:12:32;4.10;;;1.88;;
64395;SDS011;50717;53.360;6.290;2023-04-25T08:14:58;6.45;;;2.00;;
64395;SDS011;50717;53.360;6.290;2023-04-25T08:17:24;7.35;;;1.60;;
64395;SDS011;50717;53.360;6.290;2023-04-25T08:19:49;4.00;;;1.25;;
64395;SDS011;50717;53.360;6.290;2023-04-25T08:22:15;8.65;;;1.50;;
64395;SDS011;50717;53.360;6.290;2023-04-25T08:24:41;9.43;;;1.83;;
64395;SDS011;50717;53.360;6.290;2023-04-25T08:27:07;10.88;;;2.10;;
64395;SDS011;50717;53.360;6.290;2023-04-25T08:29:33;9.15;;;2.70;;
64395;SDS011;50717;53.360;6.290;2023-04-25T08:31:59;8.25;;;2.45;;
64395;SDS011;50717;53.360;6.290;2023-04-25T08:34:24;13.60;;;2.30;;
64395;SDS011;50717;53.360;6.290;2023-04-25T08:36:51;12.05;;;2.60;;
64395;SDS011;50717;53.360;6.290;2023-04-25T08:39:16;9.57;;;2.28;;
64395;SDS011;50717;53.360;6.290;2023-04-25T08:41:42;14.13;;;2.53;;
64395;SDS011;50717;53.360;6.290;2023-04-25T08:44:12;17.05;;;2.63;;
64395;SDS011;50717;53.360;6.290;2023-04-25T08:46:38;10.95;;;1.98;;
64395;SDS011;50717;53.360;6.290;2023-04-25T08:49:07;12.77;;;2.35;;
64395;SDS011;50717;53.360;6.290;2023-04-25T08:51:39;13.63;;;3.15;;
64395;SDS011;50717;53.360;6.290;2023-04-25T08:54:15;12.77;;;2.65;;
64395;SDS011;50717;53.360;6.290;2023-04-25T08:56:43;10.07;;;2.38;;
64395;SDS011;50717;53.360;6.290;2023-04-25T08:59:11;11.35;;;2.03;;
64395;SDS011;50717;53.360;6.290;2023-04-25T09:01:37;7.15;;;1.70;;
64395;SDS011;50717;53.360;6.290;2023-04-25T09:04:03;10.27;;;1.95;;
64395;SDS011;50717;53.360;6.290;2023-04-25T09:06:29;9.57;;;1.77;;
64395;SDS011;50717;53.360;6.290;2023-04-25T09:09:01;9.23;;;2.15;;
64395;SDS011;50717;53.360;6.290;2023-04-25T09:11:28;7.80;;;1.60;;
64395;SDS011;50717;53.360;6.290;2023-04-25T09:14:10;11.85;;;2.25;;
64395;SDS011;50717;53.360;6.290;2023-04-25T09:19:29;7.07;;;1.70;;
64395;SDS011;50717;53.360;6.290;2023-04-25T09:22:01;7.70;;;2.60;;
64395;SDS011;50717;53.360;6.290;2023-04-25T09:27:08;8.10;;;2.40;;
64395;SDS011;50717;53.360;6.290;2023-04-25T09:29:36;11.63;;;2.20;;
64395;SDS011;50717;53.360;6.290;2023-04-25T09:34:46;12.48;;;1.98;;
64395;SDS011;50717;53.360;6.290;2023-04-25T09:37:27;14.07;;;3.83;;
64395;SDS011;50717;53.360;6.290;2023-04-25T09:39:59;14.38;;;2.22;;
64395;SDS011;50717;53.360;6.290;2023-04-25T09:42:28;7.72;;;1.80;;
64395;SDS011;50717;53.360;6.290;2023-04-25T09:44:56;11.32;;;2.20;;
64395;SDS011;50717;53.360;6.290;2023-04-25T09:49:50;9.17;;;2.13;;
64395;SDS011;50717;53.360;6.290;2023-04-25T09:52:18;12.32;;;2.25;;
64395;SDS011;50717;53.360;6.290;2023-04-25T09:54:45;17.83;;;2.70;;
64395;SDS011;50717;53.360;6.290;2023-04-25T09:57:18;11.57;;;2.42;;
64395;SDS011;50717;53.360;6.290;2023-04-25T09:59:47;18.70;;;2.95;;
64395;SDS011;50717;53.360;6.290;2023-04-25T10:02:18;15.82;;;2.70;;
64395;SDS011;50717;53.360;6.290;2023-04-25T10:04:52;13.95;;;2.53;;
64395;SDS011;50717;53.360;6.290;2023-04-25T10:07:23;9.65;;;2.70;;
64395;SDS011;50717;53.360;6.290;2023-04-25T10:09:54;9.00;;;1.77;;
64395;SDS011;50717;53.360;6.290;2023-04-25T10:12:32;11.70;;;1.90;;
64395;SDS011;50717;53.360;6.290;2023-04-25T10:14:58;8.40;;;2.00;;
64395;SDS011;50717;53.360;6.290;2023-04-25T10:17:28;12.15;;;2.50;;
64395;SDS011;50717;53.360;6.290;2023-04-25T10:19:54;9.43;;;1.88;;
64395;SDS011;50717;53.360;6.290;2023-04-25T10:22:23;10.68;;;2.35;;
64395;SDS011;50717;53.360;6.290;2023-04-25T10:24:55;8.50;;;1.98;;
64395;SDS011;50717;53.360;6.290;2023-04-25T10:29:59;10.40;;;2.03;;
64395;SDS011;50717;53.360;6.290;2023-04-25T10:32:33;13.23;;;2.10;;
64395;SDS011;50717;53.360;6.290;2023-04-25T10:35:11;6.95;;;2.00;;
64395;SDS011;50717;53.360;6.290;2023-04-25T10:40:42;11.77;;;2.15;;
64395;SDS011;50717;53.360;6.290;2023-04-25T10:45:57;12.05;;;2.13;;
64395;SDS011;50717;53.360;6.290;2023-04-25T10:48:25;11.55;;;1.98;;
64395;SDS011;50717;53.360;6.290;2023-04-25T10:51:07;8.77;;;2.38;;
64395;SDS011;50717;53.360;6.290;2023-04-25T10:53:35;10.68;;;2.13;;
64395;SDS011;50717;53.360;6.290;2023-04-25T10:56:08;11.40;;;2.70;;
64395;SDS011;50717;53.360;6.290;2023-04-25T10:59:10;9.98;;;2.70;;
64395;SDS011;50717;53.360;6.290;2023-04-25T11:01:44;11.27;;;2.17;;
64395;SDS011;50717;53.360;6.290;2023-04-25T11:04:31;11.90;;;2.15;;
64395;SDS011;50717;53.360;6.290;2023-04-25T11:07:07;11.38;;;2.15;;
64395;SDS011;50717;53.360;6.290;2023-04-25T11:09:45;12.10;;;2.72;;
64395;SDS011;50717;53.360;6.290;2023-04-25T11:12:11;7.70;;;1.98;;
64395;SDS011;50717;53.360;6.290;2023-04-25T11:14:38;9.25;;;1.85;;
64395;SDS011;50717;53.360;6.290;2023-04-25T11:17:03;10.43;;;2.03;;
64395;SDS011;50717;53.360;6.290;2023-04-25T11:19:30;8.90;;;2.10;;
64395;SDS011;50717;53.360;6.290;2023-04-25T11:22:00;7.95;;;2.42;;
64395;SDS011;50717;53.360;6.290;2023-04-25T11:24:27;8.23;;;2.00;;
64395;SDS011;50717;53.360;6.290;2023-04-25T11:27:00;12.77;;;1.90;;
64395;SDS011;50717;53.360;6.290;2023-04-25T11:29:28;9.85;;;2.22;;
64395;SDS011;50717;53.360;6.290;2023-04-25T11:31:55;8.07;;;1.58;;
64395;SDS011;50717;53.360;6.290;2023-04-25T11:34:26;12.38;;;1.83;;
64395;SDS011;50717;53.360;6.290;2023-04-25T11:36:52;16.73;;;3.33;;
64395;SDS011;50717;53.360;6.290;2023-04-25T11:41:44;10.95;;;1.98;;
64395;SDS011;50717;53.360;6.290;2023-04-25T11:44:11;10.95;;;2.35;;
64395;SDS011;50717;53.360;6.290;2023-04-25T11:46:40;7.28;;;1.77;;
64395;SDS011;50717;53.360;6.290;2023-04-25T11:49:06;7.32;;;1.65;;
64395;SDS011;50717;53.360;6.290;2023-04-25T11:51:37;11.43;;;2.70;;
64395;SDS011;50717;53.360;6.290;2023-04-25T11:54:07;8.25;;;1.90;;
64395;SDS011;50717;53.360;6.290;2023-04-25T11:56:33;14.10;;;2.38;;
64395;SDS011;50717;53.360;6.290;2023-04-25T12:01:34;11.40;;;1.95;;
64395;SDS011;50717;53.360;6.290;2023-04-25T12:04:21;10.15;;;1.75;;
64395;SDS011;50717;53.360;6.290;2023-04-25T12:06:49;7.90;;;2.13;;
64395;SDS011;50717;53.360;6.290;2023-04-25T12:09:17;8.23;;;2.35;;
64395;SDS011;50717;53.360;6.290;2023-04-25T12:11:55;14.88;;;2.42;;
64395;SDS011;50717;53.360;6.290;2023-04-25T12:14:24;10.65;;;2.00;;
64395;SDS011;50717;53.360;6.290;2023-04-25T12:16:55;7.57;;;1.77;;
64395;SDS011;50717;53.360;6.290;2023-04-25T12:19:22;7.43;;;1.58;;
64395;SDS011;50717;53.360;6.290;2023-04-25T12:21:48;7.30;;;1.92;;
64395;SDS011;50717;53.360;6.290;2023-04-25T12:24:16;10.25;;;2.35;;
64395;SDS011;50717;53.360;6.290;2023-04-25T12:26:49;14.95;;;1.98;;
64395;SDS011;50717;53.360;6.290;2023-04-25T12:29:24;10.23;;;1.88;;
64395;SDS011;50717;53.360;6.290;2023-04-25T12:31:52;7.32;;;1.75;;
64395;SDS011;50717;53.360;6.290;2023-04-25T12:34:19;7.55;;;2.08;;
64395;SDS011;50717;53.360;6.290;2023-04-25T12:36:46;6.53;;;1.73;;
64395;SDS011;50717;53.360;6.290;2023-04-25T12:39:19;8.68;;;1.63;;
64395;SDS011;50717;53.360;6.290;2023-04-25T12:41:47;10.20;;;2.05;;
64395;SDS011;50717;53.360;6.290;2023-04-25T12:44:14;6.38;;;1.80;;
64395;SDS011;50717;53.360;6.290;2023-04-25T12:46:40;10.07;;;2.25;;
64395;SDS011;50717;53.360;6.290;2023-04-25T12:51:33;14.00;;;2.38;;
64395;SDS011;50717;53.360;6.290;2023-04-25T12:54:00;11.13;;;2.08;;
64395;SDS011;50717;53.360;6.290;2023-04-25T12:56:26;13.20;;;2.53;;
64395;SDS011;50717;53.360;6.290;2023-04-25T12:58:53;14.18;;;2.50;;
64395;SDS011;50717;53.360;6.290;2023-04-25T13:01:19;12.95;;;2.38;;
64395;SDS011;50717;53.360;6.290;2023-04-25T13:03:47;10.73;;;2.30;;
64395;SDS011;50717;53.360;6.290;2023-04-25T13:08:39;10.88;;;2.60;;
64395;SDS011;50717;53.360;6.290;2023-04-25T13:11:06;12.52;;;2.22;;
64395;SDS011;50717;53.360;6.290;2023-04-25T13:13:32;5.93;;;1.60;;
64395;SDS011;50717;53.360;6.290;2023-04-25T13:16:00;8.23;;;1.92;;
64395;SDS011;50717;53.360;6.290;2023-04-25T13:18:29;11.07;;;2.10;;
64395;SDS011;50717;53.360;6.290;2023-04-25T13:20:55;9.77;;;2.47;;
64395;SDS011;50717;53.360;6.290;2023-04-25T13:23:22;10.35;;;1.92;;
64395;SDS011;50717;53.360;6.290;2023-04-25T13:25:48;9.82;;;2.08;;
64395;SDS011;50717;53.360;6.290;2023-04-25T13:28:14;11.95;;;2.35;;
64395;SDS011;50717;53.360;6.290;2023-04-25T13:30:41;8.40;;;2.28;;
64395;SDS011;50717;53.360;6.290;2023-04-25T13:33:07;12.30;;;2.05;;
64395;SDS011;50717;53.360;6.290;2023-04-25T13:35:34;15.13;;;2.50;;
64395;SDS011;50717;53.360;6.290;2023-04-25T13:38:00;11.13;;;1.90;;
64395;SDS011;50717;53.360;6.290;2023-04-25T13:40:26;11.75;;;2.45;;
64395;SDS011;50717;53.360;6.290;2023-04-25T13:42:52;8.35;;;2.38;;
64395;SDS011;50717;53.360;6.290;2023-04-25T13:45:18;9.48;;;2.70;;
64395;SDS011;50717;53.360;6.290;2023-04-25T13:47:44;13.65;;;2.20;;
64395;SDS011;50717;53.360;6.290;2023-04-25T13:50:10;10.05;;;1.83;;
64395;SDS011;50717;53.360;6.290;2023-04-25T13:55:02;8.98;;;1.80;;
64395;SDS011;50717;53.360;6.290;2023-04-25T13:57:30;7.13;;;1.83;;
64395;SDS011;50717;53.360;6.290;2023-04-25T13:59:56;9.98;;;2.30;;
64395;SDS011;50717;53.360;6.290;2023-04-25T14:02:22;11.05;;;2.10;;
64395;SDS011;50717;53.360;6.290;2023-04-25T14:04:47;7.50;;;1.95;;
64395;SDS011;50717;53.360;6.290;2023-04-25T14:07:13;11.48;;;2.00;;
64395;SDS011;50717;53.360;6.290;2023-04-25T14:09:44;14.93;;;2.10;;
64395;SDS011;50717;53.360;6.290;2023-04-25T14:12:09;11.82;;;1.98;;
64395;SDS011;50717;53.360;6.290;2023-04-25T14:14:36;7.88;;;2.05;;
64395;SDS011;50717;53.360;6.290;2023-04-25T14:17:02;11.93;;;1.90;;
64395;SDS011;50717;53.360;6.290;2023-04-25T14:21:54;9.20;;;2.00;;
64395;SDS011;50717;53.360;6.290;2023-04-25T14:24:20;11.52;;;2.03;;
64395;SDS011;50717;53.360;6.290;2023-04-25T14:26:46;5.18;;;1.70;;
64395;SDS011;50717;53.360;6.290;2023-04-25T14:29:12;10.80;;;1.83;;
64395;SDS011;50717;53.360;6.290;2023-04-25T14:31:38;9.32;;;1.55;;
64395;SDS011;50717;53.360;6.290;2023-04-25T14:34:04;11.50;;;2.35;;
64395;SDS011;50717;53.360;6.290;2023-04-25T14:36:32;11.23;;;2.35;;
64395;SDS011;50717;53.360;6.290;2023-04-25T14:38:58;14.70;;;2.75;;
64395;SDS011;50717;53.360;6.290;2023-04-25T14:41:24;10.45;;;1.98;;
64395;SDS011;50717;53.360;6.290;2023-04-25T14:43:50;10.13;;;2.17;;
64395;SDS011;50717;53.360;6.290;2023-04-25T14:46:17;8.65;;;1.95;;
64395;SDS011;50717;53.360;6.290;2023-04-25T14:48:44;6.30;;;2.05;;
64395;SDS011;50717;53.360;6.290;2023-04-25T14:51:10;7.80;;;1.63;;
64395;SDS011;50717;53.360;6.290;2023-04-25T14:53:36;6.20;;;1.55;;
64395;SDS011;50717;53.360;6.290;2023-04-25T14:58:28;8.95;;;1.77;;
64395;SDS011;50717;53.360;6.290;2023-04-25T15:03:19;10.00;;;1.73;;
64395;SDS011;50717;53.360;6.290;2023-04-25T15:08:11;10.30;;;1.70;;
64395;SDS011;50717;53.360;6.290;2023-04-25T15:13:02;5.22;;;1.70;;
64395;SDS011;50717;53.360;6.290;2023-04-25T15:15:28;8.98;;;1.63;;
64395;SDS011;50717;53.360;6.290;2023-04-25T15:17:54;8.75;;;1.75;;
64395;SDS011;50717;53.360;6.290;2023-04-25T15:20:21;8.60;;;1.98;;
64395;SDS011;50717;53.360;6.290;2023-04-25T15:22:47;9.57;;;2.00;;
64395;SDS011;50717;53.360;6.290;2023-04-25T15:25:14;9.80;;;2.42;;
64395;SDS011;50717;53.360;6.290;2023-04-25T15:27:43;7.57;;;1.88;;
64395;SDS011;50717;53.360;6.290;2023-04-25T15:30:09;8.63;;;1.83;;
64395;SDS011;50717;53.360;6.290;2023-04-25T15:32:37;10.10;;;1.55;;
64395;SDS011;50717;53.360;6.290;2023-04-25T15:35:04;7.80;;;1.60;;